Time;durP1;ratioP1;P1;durP2;ratioP2;P2;SDS_P1;SDS_P2;PMS_P1;PMS_P2;Temp;Humidity;BMP_temperature;BMP_pressure;BME280_temperature;BME280_humidity;BME280_pressure;Samples;Min_cycle;Max_cycle;Signal;HPM_P1;HPM_P2
2023/07/25 00:00:21;;;;;;;4.00;1.63;;;12.50;99.90;;;;;;5033047;28;20048;-91
2023/07/25 00:02:47;;;;;;;7.53;2.70;;;12.50;99.90;;;;;;5029383;28;20022;-91
2023/07/25 00:05:12;;;;;;;6.88;1.67;;;12.40;99.90;;;;;;5020721;28;20041;-92
2023/07/25 00:07:38;;;;;;;8.32;1.63;;;12.40;99.90;;;;;;5030496;28;20029;-92
2023/07/25 00:10:04;;;;;;;7.13;1.67;;;12.30;99.90;;;;;;5024989;28;20075;-92
2023/07/25 00:12:29;;;;;;;2.88;1.70;;;12.30;99.90;;;;;;5033043;28;20029;-92
2023/07/25 00:14:55;;;;;;;5.05;1.85;;;12.30;99.90;;;;;;5033132;28;20033;-92
2023/07/25 00:17:20;;;;;;;4.07;1.85;;;12.20;99.90;;;;;;5033855;28;20029;-91
2023/07/25 00:19:46;;;;;;;6.95;1.80;;;12.10;99.90;;;;;;5030219;28;20491;-91
2023/07/25 00:22:11;;;;;;;6.93;1.73;;;12.10;99.90;;;;;;5025826;28;20504;-91
2023/07/25 00:24:37;;;;;;;10.20;2.40;;;12.10;99.90;;;;;;5033199;28;20025;-91
2023/07/25 00:27:04;;;;;;;7.78;2.10;;;12.10;99.90;;;;;;5032321;28;20136;-91
2023/07/25 00:29:29;;;;;;;5.35;2.42;;;12.10;99.90;;;;;;5030344;28;20113;-92
2023/07/25 00:31:55;;;;;;;10.98;2.35;;;12.00;99.90;;;;;;5013617;28;20018;-92
2023/07/25 00:34:20;;;;;;;6.97;2.60;;;11.90;99.90;;;;;;5021656;28;20048;-91
2023/07/25 00:36:46;;;;;;;9.00;3.10;;;11.90;99.90;;;;;;5026106;28;20109;-92
2023/07/25 00:39:11;;;;;;;9.43;2.97;;;11.80;99.90;;;;;;5013873;28;20026;-92
2023/07/25 00:41:37;;;;;;;6.28;2.30;;;11.80;99.90;;;;;;5020258;28;20025;-92
2023/07/25 00:44:03;;;;;;;5.22;2.33;;;11.80;99.90;;;;;;5014306;28;20133;-92
2023/07/25 00:46:28;;;;;;;6.60;2.60;;;11.70;99.90;;;;;;5025650;28;20549;-92
2023/07/25 00:48:54;;;;;;;9.07;2.53;;;11.70;99.90;;;;;;5018304;28;21013;-92
2023/07/25 00:51:19;;;;;;;6.50;2.90;;;11.70;99.90;;;;;;5043992;28;20057;-91
2023/07/25 00:53:45;;;;;;;9.52;3.38;;;11.70;99.90;;;;;;5017772;28;20405;-92
2023/07/25 00:56:12;;;;;;;11.55;3.65;;;11.60;99.90;;;;;;5029644;28;20112;-91
2023/07/25 00:58:38;;;;;;;6.40;2.67;;;11.60;99.90;;;;;;5032477;28;20473;-92
2023/07/25 01:01:05;;;;;;;5.40;2.42;;;11.60;99.90;;;;;;5027989;28;20048;-92
2023/07/25 01:03:34;;;;;;;5.63;3.22;;;11.50;99.90;;;;;;5042745;28;20033;-91
2023/07/25 01:06:03;;;;;;;8.13;2.92;;;11.50;99.90;;;;;;5032383;28;20130;-92
2023/07/25 01:08:28;;;;;;;9.20;3.40;;;11.50;99.90;;;;;;5032142;28;20052;-92
2023/07/25 01:10:54;;;;;;;6.68;3.55;;;11.50;99.90;;;;;;5031759;28;20021;-92
2023/07/25 01:13:20;;;;;;;9.00;3.33;;;11.40;99.90;;;;;;5032136;28;20064;-92
2023/07/25 01:15:47;;;;;;;5.03;3.05;;;11.40;99.90;;;;;;5031749;28;20036;-92
2023/07/25 01:18:13;;;;;;;6.93;2.83;;;11.40;99.90;;;;;;5023261;28;20030;-92
2023/07/25 01:20:40;;;;;;;8.10;3.30;;;11.30;99.90;;;;;;5028575;28;20105;-92
2023/07/25 01:23:06;;;;;;;6.55;3.50;;;11.30;99.90;;;;;;5042514;28;20136;-93
2023/07/25 01:25:32;;;;;;;7.03;2.90;;;11.20;99.90;;;;;;5032741;28;20032;-93
2023/07/25 01:27:57;;;;;;;6.22;3.67;;;11.20;99.90;;;;;;5028961;28;20021;-93
2023/07/25 01:30:23;;;;;;;9.52;4.03;;;11.20;99.90;;;;;;5032356;28;20025;-93
2023/07/25 01:32:48;;;;;;;7.80;4.13;;;11.20;99.90;;;;;;5030672;28;20026;-93
2023/07/25 01:35:14;;;;;;;9.73;3.75;;;11.20;99.90;;;;;;5031195;28;20062;-93
2023/07/25 01:37:39;;;;;;;7.03;3.78;;;11.10;99.90;;;;;;5030550;28;20080;-93
2023/07/25 01:40:06;;;;;;;7.97;4.50;;;11.10;99.90;;;;;;5024666;28;20037;-92
2023/07/25 01:42:31;;;;;;;10.32;4.63;;;11.10;99.90;;;;;;5029971;28;20025;-92
2023/07/25 01:44:57;;;;;;;8.10;4.43;;;11.10;99.90;;;;;;5027710;28;20033;-93
2023/07/25 01:47:25;;;;;;;8.00;5.20;;;11.10;99.90;;;;;;5026147;28;20029;-92
2023/07/25 01:49:52;;;;;;;13.27;5.75;;;11.00;99.90;;;;;;5031592;28;20025;-92
2023/07/25 01:52:18;;;;;;;9.63;5.75;;;11.10;99.90;;;;;;5030335;28;20112;-92
2023/07/25 01:54:43;;;;;;;10.50;5.15;;;11.10;99.90;;;;;;5031366;28;20084;-92
2023/07/25 01:57:09;;;;;;;9.52;5.07;;;11.10;99.90;;;;;;5041757;28;20076;-93
2023/07/25 01:59:34;;;;;;;11.77;4.78;;;11.10;99.90;;;;;;5031526;28;20028;-93
2023/07/25 02:02:00;;;;;;;9.27;4.53;;;11.20;99.90;;;;;;5020284;28;20061;-93
2023/07/25 02:04:26;;;;;;;9.20;3.63;;;11.20;99.90;;;;;;5013379;28;20022;-93
2023/07/25 02:06:51;;;;;;;9.30;4.70;;;11.20;99.90;;;;;;5030572;28;20500;-93
2023/07/25 02:09:17;;;;;;;11.38;6.47;;;11.30;99.90;;;;;;5028132;28;20025;-93
2023/07/25 02:11:42;;;;;;;10.77;6.35;;;11.30;99.90;;;;;;5028969;28;20057;-93
2023/07/25 02:14:08;;;;;;;13.50;6.68;;;11.30;99.90;;;;;;5031572;28;20081;-92
2023/07/25 02:16:36;;;;;;;9.93;6.43;;;11.30;99.90;;;;;;5030329;28;20069;-93
2023/07/25 02:19:02;;;;;;;9.88;5.60;;;11.40;99.90;;;;;;5031383;28;20125;-93
2023/07/25 02:21:28;;;;;;;12.85;7.35;;;11.30;99.90;;;;;;5031640;28;20022;-92
2023/07/25 02:23:54;;;;;;;19.88;7.05;;;11.30;99.90;;;;;;5033281;28;20502;-92
2023/07/25 02:26:19;;;;;;;14.00;7.60;;;11.30;99.90;;;;;;5036692;28;20029;-92
2023/07/25 02:28:45;;;;;;;19.73;9.50;;;11.30;99.90;;;;;;5037963;28;20052;-93
2023/07/25 02:31:10;;;;;;;16.95;8.40;;;11.30;99.90;;;;;;5031368;28;20029;-93
2023/07/25 02:33:36;;;;;;;17.95;9.13;;;11.40;99.90;;;;;;5027172;28;20033;-92
2023/07/25 02:36:02;;;;;;;11.43;7.68;;;11.40;99.90;;;;;;5017115;28;20029;-92
2023/07/25 02:38:27;;;;;;;13.93;7.57;;;11.30;99.90;;;;;;5023833;28;20033;-92
2023/07/25 02:40:53;;;;;;;10.32;5.90;;;11.30;99.90;;;;;;5020595;28;20033;-91
2023/07/25 02:43:18;;;;;;;8.75;6.30;;;11.30;99.90;;;;;;5026556;28;20021;-92
2023/07/25 02:45:44;;;;;;;9.55;5.90;;;11.20;99.90;;;;;;5035435;28;20028;-92
2023/07/25 02:48:10;;;;;;;11.73;6.38;;;11.10;99.90;;;;;;5029911;28;20385;-92
2023/07/25 02:50:35;;;;;;;17.48;7.05;;;11.10;99.90;;;;;;5026885;28;20111;-92
2023/07/25 02:53:01;;;;;;;12.27;8.30;;;11.10;99.90;;;;;;5020575;28;20065;-92
2023/07/25 02:55:26;;;;;;;16.55;8.18;;;11.00;99.90;;;;;;5026035;28;20041;-92
2023/07/25 02:57:52;;;;;;;14.05;8.60;;;11.00;99.90;;;;;;5033846;28;20029;-92
2023/07/25 03:00:17;;;;;;;20.73;8.00;;;11.00;99.90;;;;;;5033662;28;20048;-93
2023/07/25 03:02:43;;;;;;;12.77;8.05;;;11.00;99.90;;;;;;5048670;28;20440;-92
2023/07/25 03:05:08;;;;;;;17.75;7.95;;;11.00;99.90;;;;;;5025421;28;20030;-92
2023/07/25 03:07:34;;;;;;;17.25;8.00;;;11.00;99.90;;;;;;5031548;28;20117;-91
2023/07/25 03:09:59;;;;;;;14.70;8.30;;;11.00;99.90;;;;;;5030359;28;20032;-92
2023/07/25 03:12:25;;;;;;;9.75;6.22;;;11.00;99.90;;;;;;5032928;28;20032;-92
2023/07/25 03:14:50;;;;;;;11.77;6.88;;;11.00;99.90;;;;;;5036633;28;20051;-92
2023/07/25 03:17:16;;;;;;;10.93;7.22;;;11.00;99.90;;;;;;5043897;28;20033;-92
2023/07/25 03:19:42;;;;;;;13.82;7.75;;;11.00;99.90;;;;;;5037868;28;20067;-92
2023/07/25 03:22:07;;;;;;;12.00;7.43;;;11.00;99.90;;;;;;5035615;28;20037;-93
2023/07/25 03:24:34;;;;;;;18.98;9.02;;;11.00;99.90;;;;;;5018620;28;20079;-91
2023/07/25 03:26:59;;;;;;;16.17;8.68;;;11.00;99.90;;;;;;5030613;28;20137;-92
2023/07/25 03:29:25;;;;;;;17.30;9.02;;;11.00;99.90;;;;;;5041550;28;20128;-92
2023/07/25 03:31:50;;;;;;;14.93;8.30;;;11.00;99.90;;;;;;5033633;28;20033;-92
2023/07/25 03:34:16;;;;;;;16.75;8.95;;;11.10;99.90;;;;;;5034040;28;20041;-93
2023/07/25 03:36:41;;;;;;;21.85;9.43;;;11.10;99.90;;;;;;5037335;28;20032;-92
2023/07/25 03:39:07;;;;;;;17.08;8.35;;;11.10;99.90;;;;;;5022995;28;20030;-92
2023/07/25 03:41:32;;;;;;;13.90;7.68;;;11.10;99.90;;;;;;5026610;28;20029;-92
2023/07/25 03:43:58;;;;;;;11.52;6.47;;;11.10;99.90;;;;;;5036193;28;20033;-92
2023/07/25 03:46:23;;;;;;;14.93;7.35;;;11.10;99.90;;;;;;5032318;28;20025;-92
2023/07/25 03:48:49;;;;;;;11.52;6.50;;;11.10;99.90;;;;;;5033631;28;20542;-92
2023/07/25 03:51:14;;;;;;;11.90;6.40;;;11.10;99.90;;;;;;5036784;28;20516;-92
2023/07/25 03:53:40;;;;;;;11.65;6.70;;;11.10;99.90;;;;;;5036753;28;20033;-92
2023/07/25 03:56:07;;;;;;;17.35;9.43;;;11.10;99.90;;;;;;5035437;28;20052;-92
2023/07/25 03:58:32;;;;;;;16.45;9.13;;;11.10;99.90;;;;;;5039715;28;20031;-92
2023/07/25 04:00:58;;;;;;;17.20;8.75;;;11.10;99.90;;;;;;5046703;28;20099;-92
2023/07/25 04:03:23;;;;;;;16.60;8.48;;;11.10;99.90;;;;;;5026017;28;20025;-93
2023/07/25 04:05:49;;;;;;;13.80;8.20;;;11.10;99.90;;;;;;5026781;28;20060;-92
2023/07/25 04:08:14;;;;;;;13.82;8.00;;;11.10;99.90;;;;;;5033269;28;20026;-92
2023/07/25 04:10:40;;;;;;;11.65;7.25;;;11.20;99.90;;;;;;5017705;28;20026;-93
2023/07/25 04:13:05;;;;;;;13.43;7.93;;;11.10;99.90;;;;;;5024411;28;20025;-93
2023/07/25 04:15:31;;;;;;;15.73;8.52;;;11.10;99.90;;;;;;5022172;28;20035;-93
2023/07/25 04:17:56;;;;;;;21.20;10.48;;;11.10;99.90;;;;;;5022793;28;20511;-92
2023/07/25 04:20:22;;;;;;;24.55;9.20;;;11.10;99.90;;;;;;5017711;28;20219;-93
2023/07/25 04:22:47;;;;;;;17.15;9.65;;;11.10;99.90;;;;;;5025121;28;20041;-93
2023/07/25 04:25:13;;;;;;;16.20;8.63;;;11.20;99.90;;;;;;5036298;28;20032;-93
2023/07/25 04:27:38;;;;;;;15.65;9.73;;;11.20;99.90;;;;;;5024681;28;20060;-92
2023/07/25 04:30:05;;;;;;;15.85;9.35;;;11.20;99.90;;;;;;5029755;28;20014;-93
2023/07/25 04:32:30;;;;;;;20.33;9.85;;;11.20;99.90;;;;;;5023274;28;20485;-93
2023/07/25 04:34:56;;;;;;;14.57;8.77;;;11.20;99.90;;;;;;5042291;28;20032;-93
2023/07/25 04:37:21;;;;;;;19.17;8.95;;;11.20;99.90;;;;;;5029493;28;20025;-93
2023/07/25 04:39:47;;;;;;;18.05;8.70;;;11.20;99.90;;;;;;5016979;28;20052;-93
2023/07/25 04:42:12;;;;;;;17.08;8.40;;;11.30;99.90;;;;;;5033193;28;20048;-93
2023/07/25 04:44:38;;;;;;;13.70;8.75;;;11.20;99.90;;;;;;5024462;28;20109;-92
2023/07/25 04:47:04;;;;;;;18.05;8.65;;;11.30;99.90;;;;;;5032539;28;20116;-93
2023/07/25 04:49:29;;;;;;;17.67;10.00;;;11.30;99.90;;;;;;5032618;28;20025;-93
2023/07/25 04:51:55;;;;;;;15.90;8.95;;;11.40;99.90;;;;;;5035609;28;20021;-94
2023/07/25 04:54:20;;;;;;;17.13;9.43;;;11.40;99.90;;;;;;5024693;28;20041;-93
2023/07/25 04:56:46;;;;;;;16.48;9.88;;;11.40;99.90;;;;;;5028681;28;20025;-93
2023/07/25 04:59:11;;;;;;;18.40;8.52;;;11.50;99.90;;;;;;5029550;28;20034;-91
2023/07/25 05:01:37;;;;;;;15.32;9.10;;;11.50;99.90;;;;;;5028246;28;20032;-92
2023/07/25 05:04:02;;;;;;;15.20;9.20;;;11.60;99.90;;;;;;5032432;28;20557;-92
2023/07/25 05:06:28;;;;;;;19.08;9.93;;;11.60;99.90;;;;;;5029416;28;20033;-93
2023/07/25 05:08:54;;;;;;;19.25;9.13;;;11.70;99.90;;;;;;5025504;28;20033;-91
2023/07/25 05:11:19;;;;;;;13.38;8.98;;;11.80;99.90;;;;;;5030698;28;20026;-92
2023/07/25 05:13:45;;;;;;;16.90;9.57;;;11.80;99.90;;;;;;5019580;28;20511;-93
2023/07/25 05:16:10;;;;;;;18.08;9.40;;;11.90;99.90;;;;;;5035364;28;20096;-92
2023/07/25 05:18:36;;;;;;;17.13;10.00;;;12.00;99.90;;;;;;5034959;28;20028;-92
2023/07/25 05:21:02;;;;;;;20.40;9.75;;;12.10;99.90;;;;;;5026775;28;20116;-93
2023/07/25 05:23:27;;;;;;;15.20;9.90;;;12.10;99.90;;;;;;5033432;28;20055;-93
2023/07/25 05:25:53;;;;;;;15.52;9.40;;;12.30;99.90;;;;;;5031864;28;20029;-93
2023/07/25 05:28:19;;;;;;;17.73;10.50;;;12.40;99.90;;;;;;5031168;28;20488;-92
2023/07/25 05:30:45;;;;;;;20.02;11.40;;;12.60;99.90;;;;;;5028058;28;20025;-92
2023/07/25 05:33:10;;;;;;;17.02;10.13;;;12.80;99.90;;;;;;5034461;28;20021;-93
2023/07/25 05:35:36;;;;;;;21.30;10.77;;;13.00;99.90;;;;;;5032723;28;20453;-93
2023/07/25 05:38:02;;;;;;;16.40;9.95;;;13.20;99.90;;;;;;5051774;28;20032;-92
2023/07/25 05:40:28;;;;;;;15.90;9.40;;;13.30;99.90;;;;;;5048785;28;20024;-92
2023/07/25 05:42:53;;;;;;;15.25;9.25;;;13.40;99.90;;;;;;5032074;28;20025;-93
2023/07/25 05:45:19;;;;;;;16.10;8.85;;;13.50;99.90;;;;;;5034806;28;20032;-93
2023/07/25 05:47:46;;;;;;;16.33;8.30;;;13.60;99.90;;;;;;5035320;28;20531;-92
2023/07/25 05:50:12;;;;;;;14.02;8.20;;;13.80;99.90;;;;;;5034832;28;20029;-92
2023/07/25 05:52:37;;;;;;;18.92;8.25;;;14.00;99.90;;;;;;5032020;28;20037;-90
2023/07/25 05:55:03;;;;;;;12.90;7.55;;;14.20;99.90;;;;;;5046925;28;20075;-90
2023/07/25 05:57:29;;;;;;;16.33;7.57;;;14.40;99.90;;;;;;5025995;28;20030;-92
2023/07/25 05:59:55;;;;;;;10.57;6.97;;;14.50;99.90;;;;;;5026983;28;20072;-91
2023/07/25 06:02:20;;;;;;;14.50;6.95;;;14.60;99.90;;;;;;5030827;28;20025;-91
2023/07/25 06:04:46;;;;;;;16.13;7.22;;;14.60;99.90;;;;;;5032971;28;20021;-92
2023/07/25 06:07:15;;;;;;;10.73;6.43;;;14.60;99.90;;;;;;5035566;28;20106;-92
2023/07/25 06:09:41;;;;;;;14.40;5.95;;;14.60;99.90;;;;;;5035916;28;20025;-92
2023/07/25 06:12:08;;;;;;;9.98;6.13;;;14.60;99.90;;;;;;5031831;28;20442;-92
2023/07/25 06:14:34;;;;;;;10.32;5.88;;;14.60;99.90;;;;;;5027717;28;20041;-92
2023/07/25 06:17:00;;;;;;;14.38;4.88;;;14.60;99.90;;;;;;5032033;28;20032;-93
2023/07/25 06:19:25;;;;;;;10.02;4.22;;;14.60;99.90;;;;;;5017012;28;20037;-93
2023/07/25 06:21:51;;;;;;;8.70;3.78;;;14.60;99.90;;;;;;5025556;28;20045;-93
2023/07/25 06:24:16;;;;;;;9.05;3.58;;;14.70;99.90;;;;;;5035134;28;20400;-93
2023/07/25 06:26:42;;;;;;;10.93;4.00;;;14.80;99.90;;;;;;5032303;28;20123;-93
2023/07/25 06:29:08;;;;;;;6.78;3.13;;;14.80;99.90;;;;;;5047193;28;20037;-92
2023/07/25 06:31:34;;;;;;;9.13;3.17;;;14.90;99.90;;;;;;5031414;28;20064;-92
2023/07/25 06:34:00;;;;;;;10.57;3.42;;;15.00;99.90;;;;;;5034555;28;20036;-93
2023/07/25 06:36:26;;;;;;;12.07;3.90;;;15.10;99.90;;;;;;5029190;28;20047;-93
2023/07/25 06:38:51;;;;;;;9.52;3.70;;;15.20;99.90;;;;;;5026017;28;20508;-93
2023/07/25 06:41:17;;;;;;;9.73;2.55;;;15.50;99.90;;;;;;5037932;28;20120;-92
2023/07/25 06:43:42;;;;;;;9.50;2.45;;;15.60;99.90;;;;;;5037590;28;20040;-93
2023/07/25 06:46:08;;;;;;;7.20;1.65;;;15.60;99.90;;;;;;5037808;28;20065;-93
2023/07/25 06:48:33;;;;;;;7.78;2.20;;;15.70;99.90;;;;;;5036755;28;20060;-93
2023/07/25 06:50:59;;;;;;;6.22;1.90;;;15.80;99.90;;;;;;5023664;28;20053;-92
2023/07/25 06:53:24;;;;;;;11.27;1.98;;;15.80;99.90;;;;;;5023393;28;20033;-93
2023/07/25 06:55:50;;;;;;;8.98;1.42;;;15.90;99.90;;;;;;5026134;28;20013;-93
2023/07/25 06:58:15;;;;;;;7.07;1.33;;;15.90;99.90;;;;;;5022717;28;20108;-92
2023/07/25 07:00:41;;;;;;;6.97;1.38;;;16.00;99.90;;;;;;5036762;28;20025;-90
2023/07/25 07:03:07;;;;;;;9.90;1.65;;;16.10;99.90;;;;;;5038091;28;20439;-90
2023/07/25 07:05:33;;;;;;;6.93;1.20;;;16.20;99.90;;;;;;5023165;28;20120;-92
2023/07/25 07:07:59;;;;;;;5.38;0.70;;;16.40;99.90;;;;;;5034305;28;20044;-92
2023/07/25 07:10:25;;;;;;;5.80;0.80;;;16.40;99.90;;;;;;5019574;28;20026;-92
2023/07/25 07:12:53;;;;;;;6.57;0.60;;;16.50;99.90;;;;;;5018832;28;20436;-92
2023/07/25 07:15:23;;;;;;;7.00;0.75;;;16.60;99.90;;;;;;5031174;28;20064;-92
2023/07/25 07:17:49;;;;;;;6.85;0.43;;;16.70;99.90;;;;;;5038139;28;20048;-92
2023/07/25 07:20:15;;;;;;;4.15;0.50;;;16.80;99.90;;;;;;5037616;28;20119;-92
2023/07/25 07:22:41;;;;;;;7.45;1.02;;;16.80;99.90;;;;;;5036665;28;20107;-92
2023/07/25 07:25:06;;;;;;;6.25;0.60;;;16.80;99.90;;;;;;5035458;28;20129;-92
2023/07/25 07:27:32;;;;;;;10.38;1.23;;;16.90;99.90;;;;;;5032944;28;20401;-92
2023/07/25 07:29:57;;;;;;;11.20;0.80;;;16.90;99.90;;;;;;5033548;28;20036;-92
2023/07/25 07:32:23;;;;;;;4.47;0.60;;;16.90;99.90;;;;;;5037424;28;20036;-91
2023/07/25 07:34:48;;;;;;;6.05;0.47;;;16.90;99.90;;;;;;5033581;28;20036;-92
2023/07/25 07:37:14;;;;;;;4.68;0.40;;;17.00;99.90;;;;;;5034401;28;20026;-91
2023/07/25 07:39:41;;;;;;;4.40;0.43;;;17.00;99.90;;;;;;5026032;28;20025;-92
2023/07/25 07:42:07;;;;;;;6.38;0.50;;;17.10;99.90;;;;;;5017994;28;20033;-91
2023/07/25 07:44:32;;;;;;;6.28;0.70;;;17.00;99.90;;;;;;5028459;28;20021;-92
2023/07/25 07:46:58;;;;;;;5.60;0.60;;;17.00;99.90;;;;;;5022998;28;20021;-92
2023/07/25 07:49:23;;;;;;;5.85;0.40;;;16.90;99.90;;;;;;5017889;28;20091;-92
2023/07/25 07:51:49;;;;;;;4.85;0.40;;;17.00;99.90;;;;;;5027547;28;20128;-92
2023/07/25 07:54:14;;;;;;;3.55;0.40;;;17.10;99.90;;;;;;5033673;28;20034;-92
2023/07/25 07:56:40;;;;;;;8.07;0.60;;;17.20;99.90;;;;;;5035543;28;20017;-92
2023/07/25 07:59:07;;;;;;;2.80;0.45;;;17.30;99.90;;;;;;5037228;28;20554;-92
2023/07/25 08:01:32;;;;;;;5.57;0.70;;;17.50;99.90;;;;;;5026233;28;20052;-92
2023/07/25 08:03:59;;;;;;;5.45;0.47;;;17.60;99.90;;;;;;5031463;28;20777;-92
2023/07/25 08:06:24;;;;;;;3.20;0.40;;;17.60;99.90;;;;;;5030356;28;20032;-93
2023/07/25 08:08:50;;;;;;;6.68;0.80;;;17.70;99.90;;;;;;5035538;28;20443;-93
2023/07/25 08:11:16;;;;;;;4.60;0.57;;;17.70;99.90;;;;;;5036856;28;20025;-92
2023/07/25 08:13:41;;;;;;;5.65;0.47;;;17.80;99.90;;;;;;5034640;28;20337;-93
2023/07/25 08:16:07;;;;;;;7.43;0.40;;;17.90;99.90;;;;;;5035591;28;20393;-93
2023/07/25 08:18:32;;;;;;;7.75;0.60;;;18.00;99.90;;;;;;5025718;28;20090;-93
2023/07/25 08:20:59;;;;;;;4.28;0.50;;;18.10;99.90;;;;;;5034340;28;20104;-92
2023/07/25 08:23:25;;;;;;;2.45;0.50;;;18.20;99.90;;;;;;5035387;28;20074;-92
2023/07/25 08:25:51;;;;;;;4.55;0.45;;;18.20;99.90;;;;;;5033373;28;20045;-92
2023/07/25 08:28:17;;;;;;;4.63;0.50;;;18.10;99.90;;;;;;5029175;28;20174;-92
2023/07/25 08:30:43;;;;;;;8.35;0.52;;;18.20;99.90;;;;;;5035186;28;20484;-92
2023/07/25 08:33:10;;;;;;;7.40;0.60;;;18.30;99.90;;;;;;5037971;28;20036;-93
2023/07/25 08:35:36;;;;;;;4.55;0.43;;;18.40;99.90;;;;;;5044042;28;20092;-94
2023/07/25 08:38:01;;;;;;;4.22;0.40;;;18.50;99.90;;;;;;5029600;28;20060;-92
2023/07/25 08:40:27;;;;;;;9.10;0.45;;;18.50;99.90;;;;;;5036617;28;20021;-93
2023/07/25 08:43:01;;;;;;;5.97;0.47;;;18.50;99.90;;;;;;5036016;28;20074;-92
2023/07/25 08:45:27;;;;;;;6.03;0.70;;;18.60;99.90;;;;;;5036565;28;20025;-92
2023/07/25 08:47:54;;;;;;;4.63;0.40;;;18.50;99.90;;;;;;5031485;28;20461;-92
2023/07/25 08:50:22;;;;;;;5.50;0.43;;;18.40;99.90;;;;;;5017253;28;20060;-93
2023/07/25 08:52:54;;;;;;;7.70;0.50;;;18.30;99.90;;;;;;5028549;28;20045;-93
2023/07/25 08:55:20;;;;;;;5.00;0.50;;;18.10;99.90;;;;;;5032113;28;20041;-91
2023/07/25 08:57:46;;;;;;;6.30;1.58;;;17.90;99.90;;;;;;5026518;28;20024;-93
2023/07/25 09:00:13;;;;;;;4.25;0.52;;;17.80;99.90;;;;;;5036208;28;20037;-92
2023/07/25 09:02:39;;;;;;;4.03;0.40;;;17.70;99.90;;;;;;5027318;28;20031;-93
2023/07/25 09:05:05;;;;;;;11.85;1.33;;;17.50;99.90;;;;;;5035120;28;20388;-92
2023/07/25 09:07:31;;;;;;;4.47;0.73;;;17.30;99.90;;;;;;5035317;28;20021;-92
2023/07/25 09:09:57;;;;;;;4.93;1.20;;;17.30;99.90;;;;;;5026220;28;20497;-92
2023/07/25 09:12:23;;;;;;;5.53;0.50;;;17.30;99.90;;;;;;5028462;28;20582;-93
2023/07/25 09:14:49;;;;;;;4.38;0.68;;;17.40;99.90;;;;;;5022568;28;20041;-92
2023/07/25 09:17:14;;;;;;;3.08;0.40;;;17.60;99.90;;;;;;5031746;28;20112;-92
2023/07/25 09:19:41;;;;;;;3.38;0.45;;;17.80;99.90;;;;;;5028118;28;20031;-93
2023/07/25 09:22:26;;;;;;;4.68;0.40;;;18.10;99.90;;;;;;5021086;28;20048;-92
2023/07/25 09:24:51;;;;;;;4.20;0.40;;;18.40;99.90;;;;;;5015420;28;20044;-93
2023/07/25 09:27:17;;;;;;;7.75;0.40;;;18.60;99.90;;;;;;5015961;28;20029;-93
2023/07/25 09:29:43;;;;;;;1.75;0.30;;;18.80;99.90;;;;;;5034446;28;20120;-94
2023/07/25 09:32:19;;;;;;;4.85;0.30;;;18.90;99.90;;;;;;5036142;28;20155;-92
2023/07/25 09:34:46;;;;;;;4.10;0.20;;;19.30;99.90;;;;;;5034011;28;20083;-92
2023/07/25 09:37:14;;;;;;;4.35;0.32;;;19.50;99.90;;;;;;5035690;28;20120;-92
2023/07/25 09:39:41;;;;;;;4.68;0.30;;;19.80;99.90;;;;;;5019054;28;20086;-93
2023/07/25 09:42:07;;;;;;;2.67;0.25;;;19.90;99.90;;;;;;5030970;28;20029;-93
2023/07/25 09:44:33;;;;;;;3.88;0.32;;;19.70;99.90;;;;;;5020779;28;20378;-93
2023/07/25 09:46:58;;;;;;;2.05;0.20;;;19.50;99.90;;;;;;5040856;28;20108;-92
2023/07/25 09:49:25;;;;;;;2.08;0.30;;;19.20;99.90;;;;;;5029020;28;20036;-93
2023/07/25 09:52:03;;;;;;;0.85;0.20;;;19.10;99.90;;;;;;5020226;28;20489;-93
2023/07/25 09:54:28;;;;;;;2.00;0.17;;;19.00;99.90;;;;;;5035261;28;20087;-92
2023/07/25 09:56:54;;;;;;;1.70;0.10;;;18.80;99.90;;;;;;5026103;28;20033;-92
2023/07/25 09:59:20;;;;;;;2.20;0.15;;;18.90;99.90;;;;;;5035237;28;20037;-93
2023/07/25 10:01:46;;;;;;;1.30;0.20;;;19.00;99.90;;;;;;5034646;28;20136;-93
2023/07/25 10:04:14;;;;;;;2.22;0.30;;;19.10;99.90;;;;;;5034586;28;20052;-93
2023/07/25 10:06:40;;;;;;;2.25;0.17;;;19.30;99.90;;;;;;5035122;28;20042;-93
2023/07/25 10:09:06;;;;;;;4.72;0.22;;;19.50;99.90;;;;;;5031075;28;20033;-92
2023/07/25 10:11:33;;;;;;;3.88;0.30;;;19.70;99.90;;;;;;5018178;28;20026;-93
2023/07/25 10:14:00;;;;;;;1.05;0.10;;;20.00;99.70;;;;;;5030544;28;20029;-92
2023/07/25 10:16:26;;;;;;;1.90;0.20;;;20.30;99.00;;;;;;5018549;28;20017;-92
2023/07/25 10:18:58;;;;;;;1.98;0.10;;;20.30;98.00;;;;;;5030760;28;20441;-93
2023/07/25 10:21:27;;;;;;;;;;;20.10;97.70;;;;;;5035454;28;20507;-93
2023/07/25 10:23:59;;;;;;;4.20;0.20;;;19.90;97.80;;;;;;5034651;28;19916;-92
2023/07/25 10:26:26;;;;;;;3.42;0.15;;;19.70;97.90;;;;;;5032600;28;20036;-93
2023/07/25 10:28:52;;;;;;;2.67;0.20;;;19.50;97.70;;;;;;5031784;28;20025;-92
2023/07/25 10:31:33;;;;;;;1.08;0.20;;;19.30;97.00;;;;;;5028740;28;20029;-90
2023/07/25 10:33:59;;;;;;;1.00;0.20;;;19.10;97.20;;;;;;5031675;28;20448;-89
2023/07/25 10:36:25;;;;;;;3.15;0.13;;;19.00;97.40;;;;;;5031212;28;20021;-91
2023/07/25 10:38:57;;;;;;;1.02;0.10;;;19.20;97.50;;;;;;5022162;28;20580;-94
2023/07/25 10:41:23;;;;;;;;;;;19.50;97.10;;;;;;5033170;28;20048;-90
2023/07/25 10:43:49;;;;;;;1.55;0.20;;;19.80;96.80;;;;;;5033227;28;19912;-92
2023/07/25 10:46:17;;;;;;;1.25;0.10;;;20.00;96.30;;;;;;5034794;28;20087;-92
2023/07/25 10:48:47;;;;;;;1.92;0.10;;;20.20;94.90;;;;;;5032788;28;20029;-93
2023/07/25 10:51:15;;;;;;;0.60;0.10;;;20.10;94.30;;;;;;5029755;28;20025;-92
2023/07/25 10:54:01;;;;;;;4.80;0.43;;;19.90;94.30;;;;;;5035426;28;20087;-91
2023/07/25 10:56:27;;;;;;;2.90;0.20;;;19.90;94.40;;;;;;5048923;28;20489;-93
2023/07/25 10:59:12;;;;;;;1.30;0.10;;;20.00;93.80;;;;;;5017788;28;20025;-92
2023/07/25 11:01:47;;;;;;;1.15;0.20;;;20.10;93.90;;;;;;5015742;28;20029;-93
2023/07/25 11:04:21;;;;;;;2.67;0.10;;;20.20;93.40;;;;;;5031363;28;20029;-92
2023/07/25 11:06:49;;;;;;;1.27;0.10;;;20.30;93.20;;;;;;5034712;28;20025;-91
2023/07/25 11:09:15;;;;;;;1.95;0.10;;;20.30;93.10;;;;;;5035436;28;20024;-91
2023/07/25 11:11:48;;;;;;;1.70;0.20;;;20.30;92.60;;;;;;5034581;28;20025;-92
2023/07/25 11:14:17;;;;;;;2.22;0.10;;;20.20;92.50;;;;;;5034720;28;20131;-92
2023/07/25 11:16:45;;;;;;;1.63;0.20;;;20.20;92.00;;;;;;5032722;28;20116;-90
2023/07/25 11:19:11;;;;;;;1.05;0.10;;;20.20;91.40;;;;;;5034889;28;20024;-93
2023/07/25 11:21:41;;;;;;;1.98;0.40;;;20.20;91.40;;;;;;5034471;28;20492;-93
2023/07/25 11:24:08;;;;;;;0.93;0.10;;;20.20;91.50;;;;;;5034236;28;20497;-92
2023/07/25 11:26:36;;;;;;;4.30;0.20;;;20.20;90.70;;;;;;5037385;28;20025;-92
2023/07/25 11:29:03;;;;;;;3.65;0.40;;;20.20;91.20;;;;;;5030836;28;20140;-93
2023/07/25 11:31:29;;;;;;;1.02;0.10;;;20.30;91.60;;;;;;5026542;28;20075;-90
2023/07/25 11:33:54;;;;;;;3.30;0.20;;;20.50;91.30;;;;;;5049030;28;20071;-91
2023/07/25 11:36:21;;;;;;;1.13;0.10;;;20.80;90.80;;;;;;5032658;28;20104;-91
2023/07/25 11:38:47;;;;;;;2.78;0.43;;;21.00;90.20;;;;;;5033713;28;20029;-90
2023/07/25 11:41:13;;;;;;;1.35;0.20;;;21.30;90.10;;;;;;5036978;28;20409;-90
2023/07/25 11:43:39;;;;;;;1.52;0.10;;;21.40;88.90;;;;;;5033707;28;20028;-90
2023/07/25 11:46:04;;;;;;;0.88;0.10;;;21.50;89.40;;;;;;5035633;28;20634;-91
2023/07/25 11:48:31;;;;;;;2.88;0.20;;;21.50;88.70;;;;;;5024652;28;20032;-90
2023/07/25 11:50:57;;;;;;;0.90;0.10;;;21.40;88.70;;;;;;5036405;28;20381;-91
2023/07/25 11:53:27;;;;;;;0.63;0.17;;;21.30;88.10;;;;;;5024248;28;20457;-92
2023/07/25 11:55:55;;;;;;;2.28;0.15;;;21.20;87.90;;;;;;5036044;28;20032;-89
2023/07/25 11:58:22;;;;;;;2.40;0.10;;;21.10;87.40;;;;;;5038205;28;20089;-93
2023/07/25 12:00:54;;;;;;;1.05;0.10;;;21.20;87.10;;;;;;5037768;28;20025;-93
2023/07/25 12:03:24;;;;;;;3.08;0.10;;;21.20;86.30;;;;;;5037754;28;20033;-92
2023/07/25 12:06:08;;;;;;;1.67;0.10;;;21.30;86.10;;;;;;5037243;28;20090;-91
2023/07/25 12:08:37;;;;;;;1.45;0.15;;;21.30;86.30;;;;;;5037866;28;20059;-91
2023/07/25 12:11:05;;;;;;;0.88;0.15;;;21.40;83.50;;;;;;5037405;28;20031;-90
2023/07/25 12:13:31;;;;;;;1.30;0.10;;;21.50;83.20;;;;;;5037001;28;20037;-92
2023/07/25 12:15:57;;;;;;;1.98;0.10;;;21.70;83.00;;;;;;5032850;28;20022;-91
2023/07/25 12:18:30;;;;;;;1.33;0.13;;;21.90;82.60;;;;;;5017697;28;20543;-92
2023/07/25 12:20:59;;;;;;;2.70;0.20;;;21.90;81.70;;;;;;5031712;28;20083;-91
2023/07/25 12:23:38;;;;;;;1.65;0.10;;;21.80;80.10;;;;;;5049248;28;20033;-90
2023/07/25 12:26:05;;;;;;;1.30;0.17;;;21.40;80.70;;;;;;5037253;28;20078;-91
2023/07/25 12:28:44;;;;;;;0.73;0.10;;;21.20;81.70;;;;;;5039326;28;20028;-90
2023/07/25 12:31:11;;;;;;;1.42;0.17;;;21.20;80.90;;;;;;5024034;28;20031;-91
2023/07/25 12:33:37;;;;;;;2.45;0.20;;;21.20;80.70;;;;;;5032554;28;20040;-91
2023/07/25 12:36:04;;;;;;;0.73;0.10;;;21.30;81.70;;;;;;5033819;28;20036;-90
2023/07/25 12:38:29;;;;;;;2.63;0.30;;;21.30;80.70;;;;;;5033359;28;20029;-90